Terminal Aerodrome Forecast
Issued by NWS

Home | Current Version | Previous Version | Text Only | Print | Product List | Glossary Off
Versions: 1 2 3 4 5 6 7 8 9 10 11 12 13 14 15 16 17 18 19 20 21 22 23 24 25 26 27 28 29 30 31 32 33 34 35 36

000
FTUS43 KLOT 261033 AAB
TAFORD
TAF AMD
KORD 261033Z 2611/2712 05010KT 2SM BR BKN003
      TEMPO 2611/2613 3/4SM BR
     FM261600 05013KT P6SM BKN015
     FM270200 07013KT P6SM BKN025 OVC050=

USA.gov is the U.S. government's official web portal to all federal, state and local government web resources and services.